VE54 weather

Daltonganj Airport
Bihar, India

Public forecast

Using degrees Celsius for public forecast. Weather courtesy of forecast.io.

METAR (pilot weather report)

Closest report is Gaya Airport, 63.9 nm (118.4 km) NE. Retrieved 2018/05/21 07:30 UTC (1 hour ago):

VEGY 210730Z 32008KT 4500 HZ FEW020 SCT100 40/21 Q1003 NOSIG

TAF (pilot weather forecast)

Forecast is more than 12 hours old.

Closest forecast is Gaya Airport, 63.9 nm (118.4 km) NE. Retrieved 2018/05/18 00:00 UTC (3 days ago):

TAF VEGY 182300Z 1900/2006 07008KT 3000 HZ NSC BECMG 1904/1906 10010KT 4000 HZ SCT100 BECMG 1910/1912 05010KT 5000 HZ FEW020 BECMG 1916/1918 09008KT 4000 HZ BECMG 2000/2002 3000 HZ NSC BECMG 2004/2006 4000 HZ FEW020 SCT100